Time;durP1;ratioP1;P1;durP2;ratioP2;P2;SDS_P1;SDS_P2;PMS_P1;PMS_P2;Temp;Humidity;BMP_temperature;BMP_pressure;BME280_temperature;BME280_humidity;BME280_pressure;Samples;Min_cycle;Max_cycle;Signal;HPM_P1;HPM_P2
2021/04/07 00:02:16;;;;;;;0.40;0.30;;;;;;;2.03;97.17;99999.41;5076278;28;20456;-67
2021/04/07 00:04:48;;;;;;;0.40;0.30;;;;;;;1.98;97.13;100004.72;5075558;28;20444;-68
2021/04/07 00:07:14;;;;;;;0.40;0.30;;;;;;;1.99;96.98;100003.66;5076007;28;20485;-67
2021/04/07 00:09:40;;;;;;;0.40;0.30;;;;;;;1.94;96.41;100008.97;5076635;28;20445;-67
2021/04/07 00:12:06;;;;;;;0.40;0.30;;;;;;;1.93;96.85;100005.50;5076197;28;20459;-66
2021/04/07 00:14:32;;;;;;;0.40;0.30;;;;;;;1.89;95.96;100004.41;5075859;28;20452;-68
2021/04/07 00:16:58;;;;;;;0.40;0.30;;;;;;;1.87;96.74;100005.75;5075448;28;20453;-68
2021/04/07 00:19:25;;;;;;;0.40;0.30;;;;;;;1.89;96.23;100006.28;5076324;28;20445;-68
2021/04/07 00:21:51;;;;;;;0.40;0.30;;;;;;;1.80;96.63;100007.81;5076195;28;20499;-68
2021/04/07 00:24:17;;;;;;;0.40;0.30;;;;;;;1.80;96.90;100005.94;5075405;28;20859;-69
2021/04/07 00:26:43;;;;;;;0.40;0.30;;;;;;;1.82;96.62;100003.84;5075517;28;20522;-68
2021/04/07 00:29:08;;;;;;;0.40;0.30;;;;;;;1.84;96.53;100015.06;5076192;28;20460;-69
2021/04/07 00:31:34;;;;;;;0.40;0.30;;;;;;;1.89;96.54;100014.28;5075642;28;20441;-69
2021/04/07 00:34:00;;;;;;;0.40;0.30;;;;;;;1.88;95.96;100013.47;5076039;28;20448;-69
2021/04/07 00:36:27;;;;;;;0.40;0.30;;;;;;;1.89;95.96;100019.63;5075112;28;20536;-69
2021/04/07 00:38:53;;;;;;;0.40;0.30;;;;;;;1.86;95.15;100017.47;5075772;28;20448;-69
2021/04/07 00:41:19;;;;;;;0.40;0.30;;;;;;;1.82;95.36;100025.19;5076104;28;20441;-69
2021/04/07 00:43:45;;;;;;;0.40;0.30;;;;;;;1.84;95.19;100012.38;5074274;28;20518;-69
2021/04/07 00:46:11;;;;;;;0.60;0.40;;;;;;;1.89;94.77;100017.75;5075174;28;20453;-69
2021/04/07 00:48:37;;;;;;;0.40;0.30;;;;;;;1.85;95.23;100019.34;5075545;28;21025;-69
2021/04/07 00:51:04;;;;;;;0.40;0.30;;;;;;;1.87;94.54;100022.56;5075734;28;20441;-69
2021/04/07 00:53:31;;;;;;;0.40;0.40;;;;;;;1.90;94.70;100026.56;5075282;28;20452;-68
2021/04/07 00:55:57;;;;;;;0.40;0.30;;;;;;;1.89;95.22;100027.63;5075565;28;20448;-69
2021/04/07 00:58:23;;;;;;;0.40;0.30;;;;;;;1.93;94.99;100028.75;5074947;28;20453;-69
2021/04/07 01:00:49;;;;;;;2.30;0.97;;;;;;;1.95;95.55;100029.28;5075602;28;20516;-68
2021/04/07 01:03:15;;;;;;;0.40;0.30;;;;;;;1.86;94.44;100030.81;5075503;28;20453;-68
2021/04/07 01:05:42;;;;;;;0.40;0.30;;;;;;;1.84;94.95;100035.63;5074675;28;20454;-68
2021/04/07 01:08:08;;;;;;;0.40;0.30;;;;;;;1.90;94.24;100032.72;5075150;28;20543;-68
2021/04/07 01:10:37;;;;;;;0.40;0.30;;;;;;;1.90;94.52;100031.91;5075019;28;20457;-68
2021/04/07 01:13:03;;;;;;;0.50;0.40;;;;;;;1.92;94.87;100035.94;5075042;28;20445;-69
2021/04/07 01:15:30;;;;;;;0.40;0.30;;;;;;;1.86;94.74;100036.16;5075619;28;20441;-68
2021/04/07 01:17:56;;;;;;;0.40;0.30;;;;;;;1.90;95.32;100037.25;5074195;28;20469;-68
2021/04/07 01:20:23;;;;;;;0.40;0.30;;;;;;;1.90;94.99;100039.91;5075329;28;20488;-67
2021/04/07 01:22:53;;;;;;;0.40;0.30;;;;;;;1.89;94.51;100035.66;5074675;28;20449;-67
2021/04/07 01:25:20;;;;;;;0.40;0.30;;;;;;;1.87;94.52;100038.59;5073768;28;20947;-67
2021/04/07 01:27:46;;;;;;;0.40;0.30;;;;;;;1.93;94.56;100040.22;5074788;28;20485;-68
2021/04/07 01:30:15;;;;;;;1.10;1.10;;;;;;;1.93;94.51;100045.56;5074830;28;20450;-67
2021/04/07 01:32:41;;;;;;;0.40;0.30;;;;;;;1.89;94.50;100038.31;5075018;28;20440;-65
2021/04/07 01:35:09;;;;;;;0.40;0.30;;;;;;;1.88;94.96;100045.53;5074622;28;20452;-64
2021/04/07 01:37:37;;;;;;;0.40;0.30;;;;;;;1.92;94.59;100043.16;5074744;28;20465;-64
2021/04/07 01:40:06;;;;;;;0.40;0.30;;;;;;;1.91;95.13;100049.56;5074309;28;20958;-64
2021/04/07 01:42:34;;;;;;;0.40;0.30;;;;;;;1.93;94.35;100042.88;5074832;28;20433;-63
2021/04/07 01:45:01;;;;;;;0.40;0.30;;;;;;;1.96;93.93;100044.25;5073669;28;20476;-64
2021/04/07 01:47:29;;;;;;;0.40;0.30;;;;;;;1.99;94.66;100054.41;5074549;28;20489;-63
2021/04/07 01:49:55;;;;;;;0.40;0.30;;;;;;;1.99;95.33;100051.72;5074432;28;20457;-64
2021/04/07 01:52:21;;;;;;;0.40;0.30;;;;;;;1.98;94.77;100056.28;5074580;28;20449;-63
2021/04/07 01:54:48;;;;;;;0.40;0.30;;;;;;;1.99;93.74;100057.06;5073914;28;20442;-63
2021/04/07 01:57:14;;;;;;;0.40;0.30;;;;;;;2.00;93.87;100056.84;5073513;28;20453;-64
2021/04/07 01:59:41;;;;;;;0.40;0.30;;;;;;;1.97;93.93;100056.53;5074151;28;20491;-63
2021/04/07 02:02:07;;;;;;;0.40;0.30;;;;;;;1.92;93.25;100051.16;5074338;28;20441;-63
2021/04/07 02:04:33;;;;;;;0.73;0.73;;;;;;;1.91;93.26;100060.25;5074057;28;20437;-64
2021/04/07 02:06:59;;;;;;;0.40;0.30;;;;;;;1.91;93.27;100054.91;5073300;28;20534;-64
2021/04/07 02:09:25;;;;;;;0.40;0.30;;;;;;;1.87;94.03;100059.16;5074072;28;20437;-63
2021/04/07 02:11:53;;;;;;;0.40;0.30;;;;;;;1.86;93.64;100055.69;5074606;28;20434;-63
2021/04/07 02:14:20;;;;;;;0.40;0.30;;;;;;;1.83;94.03;100063.38;5072998;28;20433;-64
2021/04/07 02:16:52;;;;;;;0.40;0.30;;;;;;;1.82;93.92;100061.78;5073930;28;20838;-63
2021/04/07 02:19:18;;;;;;;0.40;0.30;;;;;;;1.83;94.60;100068.72;5073475;28;20437;-65
2021/04/07 02:21:44;;;;;;;0.40;0.30;;;;;;;1.81;94.10;100074.31;5073676;28;20441;-64
2021/04/07 02:24:10;;;;;;;0.40;0.33;;;;;;;1.83;94.77;100069.53;5072917;28;20812;-64
2021/04/07 02:26:36;;;;;;;0.40;0.30;;;;;;;1.85;94.11;100066.59;5073376;28;20481;-65
2021/04/07 02:29:03;;;;;;;0.40;0.30;;;;;;;1.86;94.55;100079.72;5073571;28;20465;-65
2021/04/07 02:31:29;;;;;;;0.40;0.30;;;;;;;1.87;94.62;100083.19;5073855;28;20475;-63
2021/04/07 02:33:55;;;;;;;0.40;0.30;;;;;;;1.86;94.43;100084.22;5073371;28;20441;-64
2021/04/07 02:36:21;;;;;;;0.40;0.30;;;;;;;1.91;93.96;100089.63;5072935;28;20519;-64
2021/04/07 02:38:47;;;;;;;0.40;0.30;;;;;;;1.89;93.86;100078.38;5073705;28;20433;-64
2021/04/07 02:41:13;;;;;;;0.40;0.30;;;;;;;1.94;93.98;100089.09;5073521;28;20495;-64
2021/04/07 02:43:39;;;;;;;0.50;0.40;;;;;;;1.92;93.50;100075.19;5073704;28;20872;-64
2021/04/07 02:46:05;;;;;;;0.40;0.30;;;;;;;1.92;93.92;100083.22;5072611;28;20924;-64
2021/04/07 02:48:31;;;;;;;0.40;0.40;;;;;;;1.96;94.45;100078.97;5073442;28;20846;-64
2021/04/07 02:50:58;;;;;;;1.00;0.63;;;;;;;1.92;93.77;100084.00;5073112;28;20790;-63
2021/04/07 02:53:24;;;;;;;1.07;0.97;;;;;;;1.88;94.09;100084.78;5073548;28;20445;-64
2021/04/07 02:55:50;;;;;;;1.20;1.17;;;;;;;1.92;94.48;100080.53;5072774;28;20468;-64
2021/04/07 02:58:15;;;;;;;0.40;0.30;;;;;;;1.96;94.10;100084.31;5073214;28;20464;-64
2021/04/07 03:00:41;;;;;;;0.40;0.33;;;;;;;1.98;94.25;100084.84;5073105;28;20842;-64
2021/04/07 03:03:07;;;;;;;0.40;0.30;;;;;;;1.99;94.02;100087.28;5073453;28;20844;-64
2021/04/07 03:05:33;;;;;;;0.40;0.30;;;;;;;2.02;93.44;100080.59;5071204;28;20441;-64
2021/04/07 03:08:00;;;;;;;1.57;0.60;;;;;;;2.03;93.98;100087.53;5073226;28;20484;-64
2021/04/07 03:10:26;;;;;;;0.40;0.30;;;;;;;2.03;94.40;100083.00;5073005;28;20441;-64
2021/04/07 03:12:52;;;;;;;0.40;0.30;;;;;;;2.07;94.33;100085.97;5073301;28;20443;-65
2021/04/07 03:15:18;;;;;;;0.60;0.60;;;;;;;2.07;94.14;100085.97;5073015;28;20446;-64
2021/04/07 03:17:44;;;;;;;0.50;0.50;;;;;;;2.08;93.64;100087.59;5072458;28;20453;-64
2021/04/07 03:20:11;;;;;;;0.90;0.53;;;;;;;2.08;94.44;100086.78;5072742;28;20449;-64
2021/04/07 03:22:37;;;;;;;0.40;0.30;;;;;;;2.00;95.23;100096.09;5073507;28;20441;-64
2021/04/07 03:25:06;;;;;;;0.40;0.30;;;;;;;2.01;94.69;100095.81;5072075;28;20965;-65
2021/04/07 03:27:32;;;;;;;0.73;0.70;;;;;;;2.04;94.30;100097.19;5072690;28;20496;-64
2021/04/07 03:29:59;;;;;;;0.40;0.30;;;;;;;1.98;93.93;100106.22;5072920;28;20521;-64
2021/04/07 03:32:26;;;;;;;0.40;0.30;;;;;;;2.01;93.75;100097.69;5073397;28;20445;-64
2021/04/07 03:34:52;;;;;;;0.40;0.30;;;;;;;2.03;93.52;100100.91;5072878;28;20442;-64
2021/04/07 03:37:18;;;;;;;0.40;0.30;;;;;;;2.02;94.11;100097.44;5071975;28;20488;-64
2021/04/07 03:39:44;;;;;;;0.40;0.30;;;;;;;2.03;94.80;100104.38;5072979;28;20943;-67
2021/04/07 03:42:10;;;;;;;0.40;0.30;;;;;;;2.07;94.01;100107.34;5072846;28;20441;-69
2021/04/07 03:44:36;;;;;;;0.40;0.30;;;;;;;1.96;94.52;100105.69;5072009;28;20437;-69
2021/04/07 03:47:03;;;;;;;0.40;0.30;;;;;;;1.94;94.57;100094.44;5072290;28;20476;-69
2021/04/07 03:49:31;;;;;;;0.40;0.30;;;;;;;2.00;94.34;100104.91;5072752;28;20437;-68
2021/04/07 03:51:57;;;;;;;5.93;1.37;;;;;;;1.96;94.47;100117.16;5072228;28;20485;-68
2021/04/07 03:54:23;;;;;;;0.40;0.30;;;;;;;2.01;94.01;100122.53;5072783;28;20488;-68
2021/04/07 03:56:49;;;;;;;0.40;0.30;;;;;;;2.03;94.01;100122.28;5071947;28;20480;-68
2021/04/07 03:59:16;;;;;;;0.40;0.30;;;;;;;2.09;95.03;100123.94;5072660;28;20864;-68
2021/04/07 04:01:42;;;;;;;1.17;1.07;;;;;;;2.13;94.60;100118.91;5072699;28;20441;-68
2021/04/07 04:04:10;;;;;;;0.40;0.40;;;;;;;2.13;94.46;100126.91;5072413;28;20450;-68
2021/04/07 04:06:36;;;;;;;0.40;0.30;;;;;;;2.16;93.85;100129.84;5072852;28;20468;-68
2021/04/07 04:09:02;;;;;;;0.83;0.83;;;;;;;2.18;93.04;100141.09;5071598;28;20568;-69
2021/04/07 04:11:28;;;;;;;0.40;0.30;;;;;;;2.15;92.74;100136.25;5072734;28;20444;-68
2021/04/07 04:13:54;;;;;;;0.40;0.30;;;;;;;2.20;92.66;100144.31;5072453;28;20452;-68
2021/04/07 04:16:21;;;;;;;0.40;0.30;;;;;;;2.21;93.07;100143.25;5072362;28;20842;-68
2021/04/07 04:18:48;;;;;;;0.50;0.43;;;;;;;2.21;92.75;100156.63;5075885;28;20438;-68
2021/04/07 04:21:14;;;;;;;0.40;0.30;;;;;;;2.14;92.15;100156.03;5075254;28;20449;-68
2021/04/07 04:23:40;;;;;;;0.40;0.30;;;;;;;2.16;92.43;100159.22;5076095;28;20456;-68
2021/04/07 04:26:06;;;;;;;1.20;1.10;;;;;;;2.20;92.68;100168.34;5076253;28;20459;-69
2021/04/07 04:28:32;;;;;;;0.40;0.30;;;;;;;2.09;92.87;100164.00;5075656;28;20485;-69
2021/04/07 04:30:57;;;;;;;0.87;0.87;;;;;;;1.99;92.25;100163.91;5076235;28;20437;-68
2021/04/07 04:33:24;;;;;;;0.40;0.30;;;;;;;2.04;92.66;100155.97;5075203;28;20436;-68
2021/04/07 04:35:50;;;;;;;0.40;0.40;;;;;;;2.08;92.76;100178.44;5075651;28;21031;-69
2021/04/07 04:38:19;;;;;;;0.40;0.30;;;;;;;1.95;92.39;100178.84;5075780;28;20453;-68
2021/04/07 04:40:44;;;;;;;0.40;0.30;;;;;;;1.96;92.83;100180.44;5075112;28;20441;-68
2021/04/07 04:43:10;;;;;;;0.40;0.30;;;;;;;2.00;92.75;100184.22;5075867;28;20456;-68
2021/04/07 04:45:36;;;;;;;0.40;0.30;;;;;;;2.06;93.49;100190.41;5075707;28;20869;-68
2021/04/07 04:48:04;;;;;;;0.40;0.30;;;;;;;2.11;92.51;100191.25;5075844;28;20877;-68
2021/04/07 04:50:31;;;;;;;0.40;0.30;;;;;;;2.10;92.54;100186.97;5074784;28;20441;-69
2021/04/07 04:52:57;;;;;;;0.40;0.30;;;;;;;2.08;92.45;100186.44;5075872;28;20445;-68
2021/04/07 04:55:23;;;;;;;0.40;0.30;;;;;;;2.13;92.72;100196.34;5074872;28;20441;-68
2021/04/07 04:57:49;;;;;;;0.40;0.30;;;;;;;2.19;92.08;100198.81;5074969;28;20461;-65
2021/04/07 05:00:15;;;;;;;0.40;0.30;;;;;;;2.18;91.73;100197.19;5074555;28;20437;-64
2021/04/07 05:02:41;;;;;;;0.40;0.30;;;;;;;2.14;92.36;100209.44;5074195;28;20962;-63
2021/04/07 05:05:08;;;;;;;0.40;0.30;;;;;;;2.17;91.49;100208.94;5075487;28;20442;-63
2021/04/07 05:07:35;;;;;;;0.40;0.30;;;;;;;2.19;90.56;100206.81;5074501;28;20489;-64
2021/04/07 05:10:01;;;;;;;0.40;0.30;;;;;;;2.15;90.31;100211.06;5075476;28;20445;-63
2021/04/07 05:12:27;;;;;;;1.43;0.50;;;;;;;2.17;90.88;100213.47;5075414;28;20448;-63
2021/04/07 05:14:53;;;;;;;0.40;0.40;;;;;;;2.21;92.13;100210.06;5075328;28;20467;-63
2021/04/07 05:17:19;;;;;;;0.40;0.30;;;;;;;2.27;93.19;100219.72;5074314;28;20456;-64
2021/04/07 05:19:45;;;;;;;1.67;0.77;;;;;;;2.30;92.05;100223.72;5075239;28;20437;-64
2021/04/07 05:22:11;;;;;;;0.40;0.30;;;;;;;2.31;91.63;100230.72;5075196;28;20441;-64
2021/04/07 05:24:38;;;;;;;0.40;0.30;;;;;;;2.30;91.14;100233.63;5074858;28;20452;-64
2021/04/07 05:27:04;;;;;;;0.40;0.30;;;;;;;2.31;92.01;100235.25;5093882;22;20492;-70
2021/04/07 05:29:30;;;;;;;0.40;0.30;;;;;;;2.33;91.23;100243.81;5094169;28;20957;-70
2021/04/07 05:31:56;;;;;;;2.03;1.13;;;;;;;2.34;90.20;100250.75;5095321;28;20440;-69
2021/04/07 05:34:22;;;;;;;0.40;0.30;;;;;;;2.24;90.63;100246.94;5094876;28;20465;-69
2021/04/07 05:36:48;;;;;;;0.40;0.30;;;;;;;2.22;89.79;100254.41;5094436;28;20471;-70
2021/04/07 05:39:14;;;;;;;0.40;0.40;;;;;;;2.21;90.25;100255.47;5094991;28;20459;-69
2021/04/07 05:41:42;;;;;;;0.40;0.30;;;;;;;2.26;90.20;100252.84;5095175;28;20445;-69
2021/04/07 05:44:08;;;;;;;1.67;1.57;;;;;;;2.32;90.07;100252.88;5094907;28;20446;-69
2021/04/07 05:46:34;;;;;;;0.63;0.60;;;;;;;2.31;89.86;100257.44;5093722;28;20941;-69
2021/04/07 05:49:00;;;;;;;0.40;0.30;;;;;;;2.37;89.74;100252.94;5095036;28;20532;-70
2021/04/07 05:51:26;;;;;;;0.40;0.30;;;;;;;2.42;90.23;100258.31;5102712;28;20445;-69
2021/04/07 05:53:52;;;;;;;0.40;0.40;;;;;;;2.43;89.23;100270.59;5095314;28;20456;-68
2021/04/07 05:56:18;;;;;;;0.40;0.30;;;;;;;2.35;89.21;100268.41;5094191;28;20447;-69
2021/04/07 05:58:45;;;;;;;0.40;0.30;;;;;;;2.42;89.45;100279.69;5094610;28;20460;-70
2021/04/07 06:01:11;;;;;;;0.40;0.30;;;;;;;2.41;89.67;100286.91;5094531;28;20452;-67
2021/04/07 06:03:37;;;;;;;0.40;0.30;;;;;;;2.49;89.42;100274.94;5094676;28;20932;-66
2021/04/07 06:06:06;;;;;;;0.40;0.30;;;;;;;2.48;88.92;100270.66;5093903;28;20811;-67
2021/04/07 06:08:32;;;;;;;0.40;0.40;;;;;;;2.49;88.74;100269.59;5094235;28;20506;-67
2021/04/07 06:10:58;;;;;;;0.83;0.83;;;;;;;2.59;89.54;100279.56;5094414;28;20929;-67
2021/04/07 06:13:24;;;;;;;0.80;0.43;;;;;;;2.56;88.64;100290.75;5093911;28;20942;-67
2021/04/07 06:15:51;;;;;;;1.70;0.90;;;;;;;2.53;89.07;100292.09;5094426;28;20451;-67
2021/04/07 06:18:17;;;;;;;0.40;0.30;;;;;;;2.57;88.17;100285.19;5094019;28;20965;-67
2021/04/07 06:20:44;;;;;;;1.07;0.53;;;;;;;2.64;87.78;100284.94;5094342;28;20497;-67
2021/04/07 06:23:11;;;;;;;0.40;0.30;;;;;;;2.73;88.07;100294.91;5093600;28;20456;-67
2021/04/07 06:25:38;;;;;;;0.83;0.67;;;;;;;2.76;87.53;100302.44;5094236;28;20463;-67
2021/04/07 06:28:07;;;;;;;0.40;0.30;;;;;;;2.78;87.49;100300.28;5093697;28;20541;-67
2021/04/07 06:30:44;;;;;;;0.40;0.30;;;;;;;2.78;87.49;100302.16;5093291;28;20799;-68
2021/04/07 06:33:13;;;;;;;0.50;0.50;;;;;;;2.79;86.99;100309.16;5094173;28;20478;-68
2021/04/07 06:35:40;;;;;;;0.40;0.30;;;;;;;2.76;87.53;100305.09;5094213;28;20450;-67
2021/04/07 06:38:06;;;;;;;0.40;0.30;;;;;;;2.78;87.47;100300.28;5093948;28;20483;-67
2021/04/07 06:40:33;;;;;;;0.40;0.30;;;;;;;2.83;87.38;100310.22;5092941;28;20822;-68
2021/04/07 06:43:00;;;;;;;1.83;0.63;;;;;;;2.85;87.07;100310.78;5093661;28;20942;-67
2021/04/07 06:45:27;;;;;;;0.73;0.73;;;;;;;2.96;86.84;100312.44;5094034;28;20444;-67
2021/04/07 06:47:54;;;;;;;0.40;0.30;;;;;;;3.04;86.14;100320.00;5093271;28;20515;-68
2021/04/07 06:50:21;;;;;;;0.40;0.30;;;;;;;2.92;86.50;100310.56;5093047;28;20494;-67
2021/04/07 06:52:49;;;;;;;0.40;0.30;;;;;;;2.61;89.55;100322.88;5093414;28;20441;-68
2021/04/07 06:55:16;;;;;;;0.60;0.50;;;;;;;2.46;91.64;100334.25;5093224;28;20941;-67
2021/04/07 06:57:43;;;;;;;0.63;0.47;;;;;;;2.21;93.77;100330.28;5092311;28;21001;-70
2021/04/07 07:00:10;;;;;;;0.40;0.30;;;;;;;2.00;95.62;100326.59;5093639;28;20545;-68
2021/04/07 07:02:36;;;;;;;0.40;0.30;;;;;;;1.97;97.05;100332.41;5093485;28;20447;-68
2021/04/07 07:05:03;;;;;;;20.23;1.90;;;;;;;2.02;97.19;100326.31;5093283;28;20440;-68
2021/04/07 07:07:30;;;;;;;0.40;0.30;;;;;;;2.05;97.50;100317.81;5092200;28;20491;-68
2021/04/07 07:09:56;;;;;;;0.40;0.30;;;;;;;2.15;98.21;100322.47;5093346;28;20449;-67
2021/04/07 07:12:25;;;;;;;0.40;0.30;;;;;;;2.25;97.94;100328.69;5089819;28;20447;-67
2021/04/07 07:14:51;;;;;;;0.40;0.37;;;;;;;2.30;96.76;100329.81;5091235;28;20472;-67
2021/04/07 07:17:26;;;;;;;0.40;0.30;;;;;;;2.26;95.43;100326.84;5085281;28;20460;-67
2021/04/07 07:19:52;;;;;;;0.40;0.30;;;;;;;2.37;95.57;100327.75;5072319;28;20417;-69
2021/04/07 07:22:21;;;;;;;0.40;0.30;;;;;;;2.36;94.06;100326.94;5071875;28;20965;-70
2021/04/07 07:24:52;;;;;;;0.40;0.30;;;;;;;2.48;93.94;100322.25;5072578;28;20974;-70
2021/04/07 07:27:18;;;;;;;0.80;0.80;;;;;;;2.54;92.88;100325.78;5072799;28;20476;-70
2021/04/07 07:29:54;;;;;;;1.17;0.93;;;;;;;2.74;93.32;100335.81;5072080;28;20445;-71
2021/04/07 07:32:20;;;;;;;0.40;0.30;;;;;;;2.86;91.74;100332.97;5072868;28;20437;-70
2021/04/07 07:34:46;;;;;;;0.40;0.30;;;;;;;2.91;90.75;100336.50;5074978;28;20969;-70
2021/04/07 07:37:23;;;;;;;0.80;0.80;;;;;;;2.84;89.24;100340.47;5074731;28;20515;-69
2021/04/07 07:39:50;;;;;;;0.40;0.30;;;;;;;2.90;89.89;100344.78;5072045;28;20414;-70
2021/04/07 07:42:18;;;;;;;0.50;0.50;;;;;;;3.03;88.80;100347.03;5072865;28;20441;-70
2021/04/07 07:44:44;;;;;;;0.40;0.30;;;;;;;3.08;87.75;100351.59;5072774;28;20444;-70
2021/04/07 07:47:17;;;;;;;15.43;2.50;;;;;;;3.08;87.46;100356.97;5072775;28;20454;-70
2021/04/07 07:49:54;;;;;;;3.63;1.07;;;;;;;3.02;86.87;100361.47;5071861;28;20952;-70
2021/04/07 07:52:26;;;;;;;4.67;1.67;;;;;;;3.06;86.48;100359.91;5074123;28;20428;-70
2021/04/07 07:54:53;;;;;;;0.40;0.30;;;;;;;3.14;86.58;100361.28;5076838;28;20433;-68
2021/04/07 07:57:19;;;;;;;1.83;0.57;;;;;;;3.06;86.15;100367.94;5076774;28;20457;-72
2021/04/07 07:59:45;;;;;;;0.40;0.30;;;;;;;3.18;84.77;100383.78;5076126;28;20785;-70
2021/04/07 08:02:15;;;;;;;0.60;0.60;;;;;;;3.29;84.50;100374.78;5076681;28;20481;-70
2021/04/07 08:04:44;;;;;;;0.40;0.30;;;;;;;3.42;85.34;100376.19;5080205;28;20492;-70
2021/04/07 08:07:12;;;;;;;0.40;0.30;;;;;;;3.57;84.25;100386.97;5096568;28;20464;-70
2021/04/07 08:09:38;;;;;;;0.40;0.30;;;;;;;3.77;84.81;100387.09;5095772;28;20436;-71
2021/04/07 08:12:08;;;;;;;0.40;0.30;;;;;;;3.91;83.96;100386.63;5095890;28;20440;-70
2021/04/07 08:14:35;;;;;;;0.40;0.30;;;;;;;3.97;82.35;100380.22;5096722;28;20441;-71
2021/04/07 08:17:01;;;;;;;0.40;0.30;;;;;;;4.07;82.51;100390.16;5096314;28;20476;-70
2021/04/07 08:19:28;;;;;;;0.40;0.30;;;;;;;4.14;81.42;100391.53;5096644;28;20502;-70
2021/04/07 08:21:58;;;;;;;0.40;0.30;;;;;;;4.18;80.01;100391.81;5096464;28;20433;-70
2021/04/07 08:24:27;;;;;;;0.40;0.30;;;;;;;4.04;79.85;100389.63;5096442;28;20484;-71
2021/04/07 08:26:55;;;;;;;0.70;0.60;;;;;;;4.03;80.68;100393.38;5095231;28;20464;-70
2021/04/07 08:29:22;;;;;;;0.40;0.30;;;;;;;4.01;80.13;100402.72;5096342;28;20464;-70
2021/04/07 08:31:49;;;;;;;0.50;0.37;;;;;;;4.09;80.65;100399.56;5095918;28;20942;-70
2021/04/07 08:34:17;;;;;;;3.77;0.70;;;;;;;4.06;80.55;100400.06;5096395;28;20494;-69
2021/04/07 08:36:44;;;;;;;0.40;0.30;;;;;;;4.13;80.25;100407.88;5095362;28;20490;-69
2021/04/07 08:39:12;;;;;;;0.40;0.30;;;;;;;4.17;80.25;100390.22;5096338;28;20949;-74
2021/04/07 08:41:39;;;;;;;0.40;0.30;;;;;;;4.24;81.08;100398.78;5093434;28;20449;-72
2021/04/07 08:44:06;;;;;;;0.40;0.40;;;;;;;4.25;79.59;100395.03;5084645;28;20455;-69
2021/04/07 08:46:42;;;;;;;0.40;0.30;;;;;;;4.30;79.30;100403.91;5085342;28;20440;-70
2021/04/07 08:49:08;;;;;;;0.50;0.40;;;;;;;4.42;79.38;100400.19;5084929;28;20533;-71
2021/04/07 08:51:36;;;;;;;0.40;0.30;;;;;;;4.44;78.55;100408.78;5084728;28;20446;-71
2021/04/07 08:54:03;;;;;;;0.40;0.30;;;;;;;4.55;78.17;100402.34;5086411;28;20813;-69
2021/04/07 08:56:30;;;;;;;0.40;0.30;;;;;;;4.58;76.27;100411.75;5093905;28;20857;-68
2021/04/07 08:58:58;;;;;;;0.40;0.30;;;;;;;4.52;74.76;100410.97;5095969;28;20439;-68
2021/04/07 09:01:25;;;;;;;0.40;0.30;;;;;;;4.57;76.36;100410.16;5085344;28;20440;-71
2021/04/07 09:04:04;;;;;;;0.53;0.50;;;;;;;4.63;75.46;100417.94;5076961;28;20833;-70
2021/04/07 09:06:30;;;;;;;0.40;0.30;;;;;;;4.62;76.10;100405.59;5075632;28;20425;-71
2021/04/07 09:08:56;;;;;;;0.60;0.40;;;;;;;4.62;74.77;100424.38;5074462;28;20492;-70
2021/04/07 09:11:30;;;;;;;0.67;0.67;;;;;;;4.74;72.28;100427.63;5075717;28;20453;-70
2021/04/07 09:14:04;;;;;;;0.40;0.30;;;;;;;4.81;73.01;100428.16;5075221;28;20451;-72
2021/04/07 09:16:32;;;;;;;0.40;0.30;;;;;;;4.84;70.67;100439.44;5074910;28;20433;-69
2021/04/07 09:19:13;;;;;;;0.40;0.20;;;;;;;4.86;70.47;100426.56;5077099;28;20511;-68
2021/04/07 09:21:39;;;;;;;0.40;0.30;;;;;;;5.05;73.33;100427.66;5078425;28;20429;-69
2021/04/07 09:24:16;;;;;;;1.30;1.23;;;;;;;5.36;72.31;100427.63;5075425;28;20814;-70
2021/04/07 09:26:45;;;;;;;0.40;0.30;;;;;;;5.50;70.95;100429.50;5074300;28;20452;-67
2021/04/07 09:29:12;;;;;;;1.80;0.57;;;;;;;5.59;68.83;100437.81;5075122;28;20465;-68
2021/04/07 09:31:39;;;;;;;0.40;0.30;;;;;;;5.71;67.59;100441.03;5075061;28;20445;-68
2021/04/07 09:34:05;;;;;;;0.40;0.40;;;;;;;5.61;62.84;100446.41;5074105;28;20526;-69
2021/04/07 09:36:33;;;;;;;0.40;0.30;;;;;;;5.50;61.64;100445.63;5074776;28;20446;-68
2021/04/07 09:39:04;;;;;;;0.40;0.30;;;;;;;5.61;63.79;100438.34;5074770;28;20433;-69
2021/04/07 09:41:34;;;;;;;0.77;0.60;;;;;;;5.61;61.00;100438.34;5073884;28;20426;-68
2021/04/07 09:44:00;;;;;;;0.40;0.30;;;;;;;5.51;62.49;100424.94;5074951;28;20532;-68
2021/04/07 09:46:27;;;;;;;0.50;0.50;;;;;;;5.63;61.21;100425.47;5074774;28;20471;-67
2021/04/07 09:48:55;;;;;;;0.50;0.40;;;;;;;5.87;62.15;100432.91;5074403;28;20488;-68
2021/04/07 09:51:27;;;;;;;0.80;0.40;;;;;;;5.98;61.48;100432.66;5073649;28;20452;-69
2021/04/07 09:54:06;;;;;;;0.40;0.40;;;;;;;6.10;60.46;100426.16;5073477;28;20590;-68
2021/04/07 09:56:32;;;;;;;0.40;0.30;;;;;;;6.01;60.36;100439.34;5072962;28;20464;-68
2021/04/07 09:58:58;;;;;;;0.40;0.30;;;;;;;6.05;61.30;100451.16;5074378;28;20449;-68
2021/04/07 10:01:25;;;;;;;0.53;0.53;;;;;;;6.00;58.49;100445.81;5075524;28;20459;-68
2021/04/07 10:03:53;;;;;;;0.40;0.40;;;;;;;5.80;59.41;100442.09;5080933;28;20429;-68
2021/04/07 10:06:20;;;;;;;0.40;0.30;;;;;;;5.67;60.53;100441.84;5084112;28;20433;-68
2021/04/07 10:08:58;;;;;;;0.40;0.30;;;;;;;5.56;61.27;100455.28;5089592;28;20488;-68
2021/04/07 10:11:24;;;;;;;0.40;0.30;;;;;;;5.44;60.15;100451.25;5094189;28;20424;-68
2021/04/07 10:13:51;;;;;;;0.40;0.30;;;;;;;5.47;60.74;100458.78;5092907;28;20436;-68
2021/04/07 10:16:17;;;;;;;2.97;1.23;;;;;;;5.53;61.09;100463.06;5093102;28;20814;-68
2021/04/07 10:18:44;;;;;;;1.10;0.50;;;;;;;5.71;60.84;100459.00;5094210;28;20551;-68
2021/04/07 10:21:15;;;;;;;0.80;0.40;;;;;;;5.76;60.83;100451.75;5094104;28;20813;-68
2021/04/07 10:23:42;;;;;;;2.90;2.13;;;;;;;5.69;60.86;100456.59;5094168;28;20488;-68
2021/04/07 10:26:09;;;;;;;0.73;0.73;;;;;;;5.59;60.15;100456.63;5093440;28;20444;-71
2021/04/07 10:28:35;;;;;;;0.43;0.33;;;;;;;5.43;61.20;100465.78;5093757;28;20492;-69
2021/04/07 10:31:01;;;;;;;0.40;0.30;;;;;;;5.23;61.08;100462.03;5094084;28;20445;-70
2021/04/07 10:33:27;;;;;;;1.70;1.13;;;;;;;5.29;61.85;100466.31;5094164;28;20505;-71
2021/04/07 10:35:58;;;;;;;0.40;0.30;;;;;;;5.60;62.78;100463.59;5093810;28;20987;-71
2021/04/07 10:38:32;;;;;;;0.40;0.30;;;;;;;5.80;61.33;100476.22;5093510;28;20484;-71
2021/04/07 10:40:59;;;;;;;0.40;0.30;;;;;;;5.88;60.61;100472.16;5093516;28;20452;-71
2021/04/07 10:43:31;;;;;;;0.50;0.40;;;;;;;5.96;60.28;100480.50;5093422;28;20943;-71
2021/04/07 10:45:58;;;;;;;0.40;0.30;;;;;;;5.80;61.14;100474.34;5093847;28;20436;-71
2021/04/07 10:48:24;;;;;;;6.37;1.00;;;;;;;5.76;60.54;100473.25;5093643;28;20564;-72
2021/04/07 10:50:50;;;;;;;0.40;0.30;;;;;;;5.82;61.40;100476.75;5093898;28;20502;-71
2021/04/07 10:53:27;;;;;;;0.40;0.30;;;;;;;5.56;60.65;100479.47;5093714;28;20950;-72
2021/04/07 10:55:53;;;;;;;0.40;0.30;;;;;;;5.48;60.61;100476.50;5093808;28;20425;-71
2021/04/07 10:58:25;;;;;;;0.50;0.50;;;;;;;5.30;61.31;100478.66;5093174;28;20467;-70
2021/04/07 11:00:53;;;;;;;0.50;0.50;;;;;;;5.35;63.39;100479.72;5093813;28;20444;-71
2021/04/07 11:03:30;;;;;;;0.40;0.30;;;;;;;5.50;64.05;100482.44;5094886;28;20444;-72
2021/04/07 11:05:56;;;;;;;0.60;0.60;;;;;;;5.48;62.75;100484.56;5095629;28;20416;-71
2021/04/07 11:08:21;;;;;;;0.63;0.63;;;;;;;5.45;63.80;100487.81;5093406;28;21064;-71
2021/04/07 11:10:50;;;;;;;0.40;0.30;;;;;;;5.37;64.00;100482.97;5093519;28;20440;-71
2021/04/07 11:13:20;;;;;;;0.40;0.30;;;;;;;5.39;64.20;100483.50;5093198;28;20816;-71
2021/04/07 11:15:47;;;;;;;0.40;0.30;;;;;;;5.39;63.84;100486.19;5093919;28;20484;-71
2021/04/07 11:18:14;;;;;;;0.40;0.30;;;;;;;5.49;65.14;100489.69;5093683;28;20461;-71
2021/04/07 11:20:41;;;;;;;0.40;0.30;;;;;;;5.32;64.26;100492.63;5093425;28;20816;-71
2021/04/07 11:23:08;;;;;;;0.60;0.40;;;;;;;5.48;64.66;100492.63;5093568;28;20444;-69
2021/04/07 11:25:34;;;;;;;0.50;0.50;;;;;;;5.53;64.59;100498.81;5093159;28;20443;-71
2021/04/07 11:28:01;;;;;;;0.50;0.40;;;;;;;5.49;65.04;100492.38;5101368;22;20486;-64
2021/04/07 11:30:30;;;;;;;0.40;0.30;;;;;;;5.44;65.10;100494.22;5072971;28;20456;-64
2021/04/07 11:32:58;;;;;;;0.40;0.30;;;;;;;5.47;63.88;100499.06;5073276;28;20449;-64
2021/04/07 11:35:29;;;;;;;0.40;0.30;;;;;;;5.36;65.00;100500.13;5073092;28;20825;-64